Latest Weather Observations for Gosford

IDN60901

Issued at 9:05 pm EST Tuesday 30 September 2014 (issued every 10 minutes, with the page automatically refreshed every 10 minutes)

About weather observations | Map of Sydney area stations | Latest observations for Sydney area | Other Formats
Station Details ID: 061425 Name: GOSFORD AWS Lat: -33.44 Lon: 151.36 Height: 7.0 m
Data from the previous 72 hours. | See also: Recent months at Gosford
Date/Time
EST
Tmp

°C
App
Tmp
°C
Dew
Point
°C
Rel
Hum
%
Delta-T

°C
Wind Press
QNH
hPa
Press
MSL
hPa
Rain
since
9 am
mm
Dir
 
Spd
km/h
Gust
km/h
Spd
kts
Gust
kts
30/09:00pm 27.1 25.6 9.0 32 9.9 NNE 7 15 4 8 - - 0.0
30/08:30pm 27.4 25.6 9.3 32 10.0 NNE 9 15 5 8 - - 0.0
30/08:00pm 27.5 26.0 9.3 32 10.0 NE 7 20 4 11 - - 0.0
30/07:30pm 28.4 27.0 9.6 31 10.5 N 7 20 4 11 - - 0.0
30/07:00pm 28.3 26.5 9.6 31 10.4 NE 9 19 5 10 - - 0.0
30/06:30pm 29.1 27.3 9.3 29 11.0 NNE 9 30 5 16 - - 0.0
30/06:00pm 29.9 27.9 7.2 24 12.2 NW 7 22 4 12 - - 0.0
30/05:30pm 31.1 27.8 8.2 24 12.6 NNW 15 30 8 16 - - 0.0
30/05:00pm 32.0 27.8 7.6 22 13.4 NW 19 33 10 18 - - 0.0
30/04:30pm 32.4 28.3 8.6 23 13.3 WNW 20 32 11 17 - - 0.0
30/04:00pm 32.8 28.9 9.6 24 13.2 NNW 20 35 11 19 - - 0.0
30/03:40pm 33.1 27.3 7.9 21 14.0 WNW 28 44 15 24 - - 0.0
30/03:30pm 32.6 30.5 11.2 27 12.5 NW 13 19 7 10 - - 0.0
30/03:00pm 33.0 28.7 7.8 21 13.9 NW 20 43 11 23 - - 0.0
30/02:30pm 32.8 29.5 10.8 26 12.8 NW 19 50 10 27 - - 0.0
30/02:00pm 33.2 31.3 11.7 27 12.7 NNW 13 28 7 15 - - 0.0
30/01:30pm 32.5 31.2 9.9 25 12.9 N 7 17 4 9 - - 0.0
30/01:00pm 30.9 28.0 9.7 27 12.0 N 15 32 8 17 - - 0.0
30/12:30pm 30.7 29.6 10.6 29 11.5 NW 7 15 4 8 - - 0.0
30/12:00pm 31.1 29.6 10.4 28 11.8 NW 9 35 5 19 - - 0.0
30/11:30am 30.2 28.0 10.7 30 11.2 NNW 13 28 7 15 - - 0.0
30/11:00am 29.5 27.5 11.5 33 10.4 NNW 13 26 7 14 - - 0.0
30/10:30am 28.1 29.1 15.4 46 7.8 NNE 4 7 2 4 - - 0.0
30/10:00am 27.3 27.2 14.0 44 7.9 NNW 7 15 4 8 - - 0.0
30/09:30am 27.4 28.7 15.1 47 7.5 NNW 2 7 1 4 - - 0.0
30/09:00am 27.3 29.5 17.5 55 6.2 ENE 2 6 1 3 - - 0.0
30/08:30am 25.6 25.0 11.7 42 7.9 ENE 6 11 3 6 - - 0.0
30/08:00am 23.5 22.8 11.5 47 6.7 NE 6 13 3 7 - - 0.0
30/07:54am 23.6 22.6 11.0 45 7.0 NE 7 13 4 7 - - 0.0
30/07:30am 18.5 19.1 14.2 76 2.5 ENE 4 6 2 3 - - 0.0
30/07:00am 17.2 19.0 15.5 90 1.0 CALM 0 4 0 2 - - 0.0
30/06:30am 16.0 17.0 14.2 89 1.0 S 2 6 1 3 - - 0.0
30/06:00am 15.2 15.8 13.2 88 1.1 ENE 2 6 1 3 - - 0.0
30/05:30am 14.3 15.2 12.9 91 0.8 CALM 0 0 0 0 - - 0.0
30/05:00am 13.9 14.4 12.8 93 0.6 NNE 2 4 1 2 - - 0.0
30/04:30am 12.9 13.6 12.1 95 0.4 CALM 0 4 0 2 - - 0.0
30/04:00am 12.5 13.0 11.7 95 0.4 CALM 0 0 0 0 - - 0.0
30/03:30am 13.3 13.8 12.8 97 0.3 NE 2 4 1 2 - - 0.0
30/03:00am 12.9 13.3 12.4 97 0.3 NE 2 6 1 3 - - 0.0
30/02:30am 13.0 13.5 12.7 98 0.2 ENE 2 4 1 2 - - 0.0
30/02:00am 13.1 13.9 12.6 97 0.3 CALM 0 0 0 0 - - 0.0
30/01:30am 13.7 14.7 13.1 96 0.3 CALM 0 0 0 0 - - 0.0
30/01:00am 13.6 14.4 12.5 93 0.6 CALM 0 0 0 0 - - 0.0
30/12:30am 14.1 15.0 12.8 92 0.7 CALM 0 0 0 0 - - 0.0
30/12:00am 14.2 15.0 12.4 89 1.0 NW 0 0 0 0 - - 0.0
 
Date/Time
EST
Tmp

°C
App
Tmp
°C
Dew
Point
°C
Rel
Hum
%
Delta-T

°C
Wind Press
QNH
hPa
Press
MSL
hPa
Rain
since
9 am
mm
Dir
 
Spd
km/h
Gust
km/h
Spd
kts
Gust
kts
29/11:30pm 15.5 16.5 13.2 86 1.3 CALM 0 0 0 0 - - 0.0
29/11:00pm 16.1 16.9 12.7 80 1.9 CALM 0 2 0 1 - - 0.0
29/10:30pm 17.4 18.4 13.3 77 2.3 CALM 0 0 0 0 - - 0.0
29/10:00pm 18.0 18.7 12.2 69 3.2 CALM 0 0 0 0 - - 0.0
29/09:30pm 18.9 19.1 13.1 69 3.3 NNW 4 6 2 3 - - 0.0
29/09:00pm 17.4 17.6 11.7 69 3.1 SSE 2 7 1 4 - - 0.0
29/08:30pm 18.8 19.2 11.1 61 4.2 CALM 0 0 0 0 - - 0.0
29/08:00pm 19.4 19.0 11.2 59 4.5 E 4 6 2 3 - - 0.0
29/07:30pm 20.2 20.7 11.7 58 4.7 CALM 0 2 0 1 - - 0.0
29/07:00pm 22.5 22.1 9.6 44 7.0 ENE 2 7 1 4 - - 0.0
29/06:30pm 24.3 23.3 8.7 37 8.4 N 4 7 2 4 - - 0.0
29/06:00pm 27.2 25.4 8.1 30 10.3 NNW 7 13 4 7 - - 0.0
29/05:30pm 28.4 27.0 8.7 29 10.8 NNW 6 7 3 4 - - 0.0
29/05:00pm 30.7 28.8 9.0 26 12.1 NW 9 13 5 7 - - 0.0
29/04:30pm 31.3 29.4 8.9 25 12.5 NW 9 17 5 9 - - 0.0
29/04:00pm 31.5 30.0 9.1 25 12.6 WNW 7 19 4 10 - - 0.0
29/03:30pm 31.9 30.5 8.8 24 12.9 NNW 6 11 3 6 - - 0.0
29/03:00pm 31.4 29.7 8.4 24 12.8 WNW 7 19 4 10 - - 0.0
29/02:30pm 31.2 30.2 8.8 25 12.5 WSW 4 9 2 5 - - 0.0
29/02:00pm 30.9 27.9 9.2 26 12.2 W 15 19 8 10 - - 0.0
29/01:30pm 30.6 29.0 8.9 26 12.1 W 7 13 4 7 - - 0.0
29/01:00pm 29.9 27.4 8.3 26 11.9 NW 11 19 6 10 - - 0.0
29/12:30pm 29.4 27.2 9.5 29 11.1 WNW 11 19 6 10 - - 0.0
29/12:00pm 28.8 26.4 8.5 28 11.1 NW 11 19 6 10 - - 0.0
29/11:30am 28.4 26.3 8.1 28 11.0 WNW 9 26 5 14 - - 0.0
29/11:00am 27.5 25.3 9.3 32 10.0 NW 11 20 6 11 - - 0.0
29/10:30am 26.9 28.0 17.9 57 5.7 NNW 9 20 5 11 - - 0.0
29/10:00am 26.1 25.7 16.1 54 6.1 NW 13 24 7 13 - - 0.0
29/09:30am 25.9 25.3 15.6 53 6.3 NW 13 20 7 11 - - 0.0
29/09:00am 25.0 23.4 13.9 50 6.5 NNW 15 26 8 14 - - 0.0
29/08:30am 24.4 22.9 14.2 53 6.0 NW 15 26 8 14 - - 0.0
29/08:00am 23.1 21.2 13.0 53 5.8 NNW 15 28 8 15 - - 0.0
29/07:30am 22.2 20.7 13.0 56 5.3 NNW 13 24 7 13 - - 0.0
29/07:00am 21.4 17.9 10.9 51 5.8 NNW 20 30 11 16 - - 0.0
29/06:30am 19.2 17.7 10.7 58 4.6 N 9 20 5 11 - - 0.0
29/06:00am 15.0 14.4 11.6 80 1.8 N 6 7 3 4 - - 0.0
29/05:30am 11.2 11.2 11.2 100 0.0 NNE 2 7 1 4 - - 0.0
29/05:00am 10.3 - - - - ENE 2 6 1 3 - - 0.0
29/04:30am 10.3 - - - - E 2 4 1 2 - - 0.0
29/04:00am 10.1 - - - - E 2 6 1 3 - - 0.0
29/03:30am 10.6 - - - - CALM 0 0 0 0 - - 0.0
29/03:00am 11.1 11.5 11.1 100 0.0 CALM 0 4 0 2 - - 0.0
29/02:30am 11.9 12.5 11.9 100 0.0 CALM 0 0 0 0 - - 0.0
29/02:00am 12.4 13.2 12.4 100 0.0 CALM 0 0 0 0 - - 0.0
29/01:30am 13.2 13.8 13.0 99 0.1 SSE 2 6 1 3 - - 0.0
29/01:00am 13.9 13.7 13.6 98 0.2 ESE 7 9 4 5 - - 0.0
29/12:30am 13.8 14.9 13.5 98 0.2 CALM 0 4 0 2 - - 0.0
29/12:00am 14.1 14.7 13.1 94 0.6 ENE 2 6 1 3 - - 0.0
 
Date/Time
EST
Tmp

°C
App
Tmp
°C
Dew
Point
°C
Rel
Hum
%
Delta-T

°C
Wind Press
QNH
hPa
Press
MSL
hPa
Rain
since
9 am
mm
Dir
 
Spd
km/h
Gust
km/h
Spd
kts
Gust
kts
28/11:30pm 15.3 15.6 13.3 88 1.1 N 4 7 2 4 - - 0.0
28/11:00pm 15.9 15.3 13.6 86 1.3 N 9 17 5 9 - - 0.0
28/10:30pm 16.5 15.2 13.6 83 1.6 N 13 24 7 13 - - 0.0
28/10:00pm 17.0 15.4 13.9 82 1.8 N 15 28 8 15 - - 0.0
28/09:30pm 17.2 15.7 14.3 83 1.7 N 15 28 8 15 - - 0.0
28/09:00pm 17.3 16.8 14.9 86 1.4 NNE 11 20 6 11 - - 0.0
28/08:30pm 17.5 17.1 15.1 86 1.4 NNE 11 22 6 12 - - 0.0
28/08:00pm 17.7 16.5 15.1 85 1.5 N 15 24 8 13 - - 0.0
28/07:30pm 17.6 17.0 14.5 82 1.8 NNE 11 19 6 10 - - 0.0
28/07:00pm 17.8 17.5 14.3 80 2.0 NNE 9 17 5 9 - - 0.0
28/06:30pm 18.2 17.6 14.5 79 2.1 N 11 24 6 13 - - 0.0
28/06:00pm 18.4 17.6 15.1 81 1.9 NNE 13 22 7 12 - - 0.0
28/05:30pm 18.8 18.2 14.7 77 2.4 NNE 11 28 6 15 - - 0.0
28/05:00pm 19.4 17.7 14.6 74 2.8 NE 17 32 9 17 - - 0.0
28/04:30pm 20.2 19.0 15.0 72 3.1 NNE 15 30 8 16 - - 0.0
28/04:00pm 20.6 18.6 14.9 70 3.3 ENE 19 30 10 16 - - 0.0
28/03:30pm 21.1 18.9 15.0 68 3.6 NE 20 32 11 17 - - 0.0
28/03:00pm 21.7 20.0 15.8 69 3.5 ENE 19 28 10 15 - - 0.0
28/02:30pm 21.8 19.7 15.2 66 3.9 ENE 20 30 11 16 - - 0.0
28/02:00pm 21.9 19.5 14.5 63 4.3 ENE 20 32 11 17 - - 0.0
28/01:30pm 22.5 20.2 14.6 61 4.7 ENE 20 32 11 17 - - 0.0
28/01:00pm 23.0 21.1 15.1 61 4.7 ENE 19 28 10 15 - - 0.0
28/12:30pm 22.7 21.6 14.3 59 4.9 NE 13 20 7 11 - - 0.0
28/12:00pm 22.4 21.6 14.0 59 4.9 NE 11 19 6 10 - - 0.0
28/11:30am 22.9 22.9 15.2 62 4.6 NE 9 17 5 9 - - 0.0
28/11:00am 21.7 21.2 13.9 61 4.5 NE 9 19 5 10 - - 0.0
28/10:30am 20.9 20.3 13.4 62 4.3 NE 9 19 5 10 - - 0.0
28/10:00am 20.9 19.9 12.3 58 4.8 N 9 15 5 8 - - 0.0
28/09:30am 20.2 20.0 12.9 63 4.1 N 6 17 3 9 - - 0.0
28/09:00am 19.2 19.1 13.4 69 3.3 N 6 11 3 6 - - 0.0
28/08:30am 17.7 17.4 13.2 75 2.5 NNW 7 13 4 7 - - 0.0
28/08:00am 16.4 18.0 14.8 90 0.9 CALM 0 0 0 0 - - 0.0
28/07:30am 13.7 14.8 13.4 98 0.2 CALM 0 0 0 0 - - 0.0
28/07:00am 11.6 - - - - CALM 0 0 0 0 - - 0.0
28/06:30am 9.5 - - - - CALM 0 0 0 0 - - 0.0
28/06:00am 8.2 - - - - CALM 0 0 0 0 - - 0.0
28/05:30am 8.2 - - - - CALM 0 0 0 0 - - 0.0
28/05:00am 8.1 - - - - CALM 0 0 0 0 - - 0.0
28/04:30am 8.1 - - - - CALM 0 0 0 0 - - 0.0
28/04:00am 8.5 - - - - CALM 0 0 0 0 - - 0.0
28/03:30am 8.8 - - - - CALM 0 0 0 0 - - 0.0
28/03:00am 9.0 - - - - CALM 0 0 0 0 - - 0.0
28/02:30am 9.1 - - - - CALM 0 0 0 0 - - 0.0
28/02:00am 9.4 - - - - CALM 0 0 0 0 - - 0.0
28/01:30am 9.6 - - - - CALM 0 0 0 0 - - 0.0
28/01:00am 9.6 - - - - CALM 0 0 0 0 - - 0.0
28/12:30am 10.1 - - - - CALM 0 0 0 0 - - 0.0
28/12:00am 10.1 - - - - CALM 0 0 0 0 - - 0.0
 
Date/Time
EST
Tmp

°C
App
Tmp
°C
Dew
Point
°C
Rel
Hum
%
Delta-T

°C
Wind Press
QNH
hPa
Press
MSL
hPa
Rain
since
9 am
mm
Dir
 
Spd
km/h
Gust
km/h
Spd
kts
Gust
kts
27/11:30pm 10.4 - - - - CALM 0 0 0 0 - - 0.0
27/11:00pm 10.9 - - - - CALM 0 0 0 0 - - 0.0
27/10:30pm 10.8 - - - - CALM 0 0 0 0 - - 0.0
27/10:00pm 11.2 - - - - CALM 0 0 0 0 - - 0.0
27/09:30pm 11.4 11.8 11.4 100 0.0 CALM 0 0 0 0 - - 0.0

Latest Capital City Observations: Canberra | Sydney | Melbourne | Brisbane | Adelaide | Perth | Hobart | Darwin

Other Formats:

Comma delimited format used in spreadsheet applications
http://www.bom.gov.au/fwo/IDN60901/IDN60901.94782.axf

JavaScript Object Notation format (JSON) in row-major order
http://www.bom.gov.au/fwo/IDN60901/IDN60901.94782.json